WMKP/PEN METAR and TAF weather

Enter ICAO airport designator
Station Type Date Time Source
WMKP METAR 2019/08/18 08:30 UTC NOAA

WMKP 180830Z 25008KT 210V290 7000 TS FEW017CB SCT140 BKN270 31/25 Q1008 NOSIG


Station Type Date Time Source
WMKP Decoded METAR 2019/08/18 08:30 UTC NOAA

Station name not available
Aug 18, 2019 - 04:30 AM EDT / 2019.08.18 0830 UTC
Wind: from the WSW (250 degrees) at 9 MPH (8 KT) (direction variable):0
Visibility: 4 mile(s):0
Sky conditions: mostly cloudy
Weather: thunder; Cumulonimbus clouds observed
Temperature: 87 F (31 C)
Heat index: 97.5 F (36.4 C):1
Dew Point: 77 F (25 C)
Relative Humidity: 70%
Pressure (altimeter): 29.77 in. Hg (1008 hPa)
ob: WMKP 180830Z 25008KT 210V290 7000 TS FEW017CB SCT140 BKN270 31/25 Q1008 NOSIG
cycle: 8

Station Type Date Time Source
WMKP TAF 2019/08/18 07:10 UTC NOAA

TAF
AMD WMKP 180752Z 1807/1906 21010KT 9000 FEW020
TEMPO 1808/1812 5000 TSRA FEW010 FEW017CB
BECMG 1811/1813 VRB03KT 8000 FEW025
BECMG 1902/1904 19007KT 9000 FEW020

Example: see airport list